createdAt,value
2022-09-27T00:04:05.864Z,3.6
2022-09-27T00:09:56.037Z,3.3
2022-09-27T00:15:47.515Z,3.7
2022-09-27T00:21:39.249Z,3.4
2022-09-27T00:27:31.181Z,3.6
2022-09-27T00:33:22.514Z,2.8
2022-09-27T00:39:13.015Z,4.4
2022-09-27T00:45:06.523Z,3.1
2022-09-27T00:50:56.881Z,3.8
2022-09-27T00:56:49.719Z,2.7
2022-09-27T01:02:41.519Z,3.3
2022-09-27T01:08:32.651Z,3
2022-09-27T01:14:26.930Z,2.9
2022-09-27T01:20:15.993Z,2.6
2022-09-27T01:26:06.756Z,2.7
2022-09-27T01:31:57.342Z,2.3
2022-09-27T01:37:46.652Z,2.1
2022-09-27T01:43:35.706Z,1.7
2022-09-27T01:49:24.884Z,1.6
2022-09-27T01:55:14.544Z,1.5
2022-09-27T02:01:04.593Z,1.2
2022-09-27T02:06:55.341Z,1.4
2022-09-27T02:12:47.456Z,1.5
2022-09-27T02:18:36.694Z,1
2022-09-27T02:24:31.774Z,1.2
2022-09-27T02:30:22.930Z,1.3
2022-09-27T02:36:14.241Z,1.3
2022-09-27T02:42:06.816Z,1.3
2022-09-27T02:47:58.607Z,1.5
2022-09-27T02:53:50.909Z,1.8
2022-09-27T02:59:41.434Z,1.6
2022-09-27T03:05:32.173Z,2.1
2022-09-27T03:11:23.659Z,1.6
2022-09-27T03:17:16.971Z,1.5
2022-09-27T03:23:08.683Z,1.7
2022-09-27T03:29:00.485Z,1.5
2022-09-27T03:34:51.892Z,1.5
2022-09-27T03:40:44.416Z,1.2
2022-09-27T03:46:35.981Z,1.4
2022-09-27T03:52:27.678Z,1.2
2022-09-27T03:58:18.350Z,1
2022-09-27T04:04:16.391Z,0.9
2022-09-27T04:10:06.851Z,0.9
2022-09-27T04:15:59.592Z,0.8
2022-09-27T04:21:48.868Z,1
2022-09-27T04:27:39.429Z,1.1
2022-09-27T04:33:30.010Z,1
2022-09-27T04:39:21.002Z,0.9
2022-09-27T04:45:11.267Z,1
2022-09-27T04:51:01.943Z,1.1
2022-09-27T04:56:52.294Z,1.1
2022-09-27T05:02:43.121Z,1.3
2022-09-27T05:08:34.099Z,1.2
2022-09-27T05:20:19.795Z,2.1
2022-09-27T05:26:19.317Z,2.3
2022-09-27T05:32:10.497Z,2.4
2022-09-27T05:38:00.925Z,2.8
2022-09-27T05:43:52.545Z,1.9
2022-09-27T05:49:44.479Z,2.2
2022-09-27T05:55:36.773Z,2.1
2022-09-27T06:01:29.710Z,2.1
2022-09-27T06:07:20.974Z,2.1
2022-09-27T06:13:13.036Z,1.8
2022-09-27T06:19:04.388Z,1.9
2022-09-27T06:24:54.846Z,1.9
2022-09-27T06:30:46.441Z,1.8
2022-09-27T06:36:42.231Z,1.8
2022-09-27T06:42:32.031Z,1.8
2022-09-27T06:48:23.663Z,1.4
2022-09-27T06:54:20.530Z,1.3
2022-09-27T07:00:13.779Z,1.4
2022-09-27T07:06:04.418Z,1.2
2022-09-27T07:11:57.742Z,1.1
2022-09-27T07:17:48.724Z,1.1
2022-09-27T07:23:40.272Z,1.1
2022-09-27T07:29:42.608Z,1
2022-09-27T07:35:35.095Z,1.3
2022-09-27T07:41:32.736Z,1.5
2022-09-27T07:47:29.584Z,1
2022-09-27T07:53:21.808Z,1.2
2022-09-27T07:59:14.043Z,1
2022-09-27T08:05:08.806Z,1.1
2022-09-27T08:11:01.528Z,1
2022-09-27T08:16:52.586Z,1
2022-09-27T08:22:47.144Z,1.1
2022-09-27T08:28:42.571Z,1.1
2022-09-27T08:34:33.532Z,1
2022-09-27T08:40:25.531Z,1
2022-09-27T08:46:16.469Z,1
2022-09-27T08:52:07.576Z,0.6
2022-09-27T08:57:58.552Z,0.7
2022-09-27T09:03:51.455Z,1.1
2022-09-27T09:09:41.194Z,0.8
2022-09-27T09:15:32.580Z,0.6
2022-09-27T09:21:27.339Z,0.6
2022-09-27T09:27:29.836Z,0.6
2022-09-27T09:33:23.410Z,0.7
2022-09-27T09:39:15.105Z,0.7
2022-09-27T09:45:06.503Z,0.7
2022-09-27T09:56:54.408Z,0.7
2022-09-27T10:02:49.740Z,0.7
2022-09-27T10:08:43.018Z,0.7
2022-09-27T10:14:36.338Z,0.9
2022-09-27T10:20:33.197Z,0.9
2022-09-27T10:32:42.531Z,1
2022-09-27T10:38:41.282Z,1
2022-09-27T10:44:32.442Z,1
2022-09-27T10:51:03.322Z,0.9
2022-09-27T10:56:52.298Z,0.8
2022-09-27T11:02:51.006Z,1.4
2022-09-27T11:08:51.584Z,0.8
2022-09-27T11:14:42.694Z,1.2
2022-09-27T11:20:35.063Z,1.1
2022-09-27T11:26:27.317Z,1.1
2022-09-27T11:32:19.005Z,0.9
2022-09-27T11:38:09.832Z,1.1
2022-09-27T11:44:09.188Z,1.1
2022-09-27T11:49:58.848Z,1
2022-09-27T12:02:05.709Z,1.3
2022-09-27T12:07:58.383Z,1.1
2022-09-27T12:13:49.589Z,1.2
2022-09-27T12:19:40.743Z,1.2
2022-09-27T12:25:32.166Z,1.3
2022-09-27T12:31:41.054Z,1.2
2022-09-27T12:37:32.005Z,1
2022-09-27T12:43:23.538Z,1.2
2022-09-27T12:49:15.286Z,1.2
2022-09-27T12:55:08.025Z,1.2
2022-09-27T13:00:59.085Z,1.3
2022-09-27T13:06:49.395Z,1.2
2022-09-27T13:12:40.806Z,1.5
2022-09-27T13:18:32.963Z,1.4
2022-09-27T13:24:24.367Z,1.4
2022-09-27T13:30:17.192Z,1.4
2022-09-27T13:36:08.184Z,1.3
2022-09-27T13:42:00.135Z,1.3
2022-09-27T13:47:51.765Z,1.3
2022-09-27T13:53:42.474Z,1.4
2022-09-27T13:59:34.309Z,1.4
2022-09-27T14:05:29.516Z,1.2
2022-09-27T14:11:20.595Z,1.1
2022-09-27T14:17:16.675Z,13.5
2022-09-27T14:23:08.746Z,1.5
2022-09-27T14:29:00.424Z,1.1
2022-09-27T14:34:53.939Z,1
2022-09-27T14:40:58.509Z,0.9
2022-09-27T14:47:11.753Z,0.9
2022-09-27T14:53:03.204Z,0.9
2022-09-27T14:59:04.900Z,3.5
2022-09-27T15:04:56.467Z,1.4
2022-09-27T15:10:47.447Z,1.1
2022-09-27T15:16:38.970Z,0.8
2022-09-27T15:22:31.378Z,1
2022-09-27T15:28:24.195Z,0.9
2022-09-27T15:34:28.385Z,0.8
2022-09-27T15:40:22.343Z,0.9
2022-09-27T15:46:14.149Z,0.9
2022-09-27T15:52:07.298Z,1.7
2022-09-27T15:57:59.120Z,0.9
2022-09-27T16:03:49.651Z,0.9
2022-09-27T16:09:40.936Z,0.9
2022-09-27T16:15:31.473Z,1.3
2022-09-27T16:21:23.025Z,1.8
2022-09-27T16:27:14.781Z,2.5
2022-09-27T16:33:05.433Z,2.8
2022-09-27T16:38:57.534Z,3.1
2022-09-27T16:44:48.401Z,3.3
2022-09-27T16:50:41.594Z,3.8
2022-09-27T16:56:35.423Z,4.7
2022-09-27T17:02:26.194Z,6.4
2022-09-27T17:08:15.816Z,4.2
2022-09-27T17:14:08.035Z,5.2
2022-09-27T17:20:01.033Z,9.9
2022-09-27T17:25:56.198Z,6.3
2022-09-27T17:31:51.120Z,19.6
2022-09-27T17:37:56.713Z,10.7
2022-09-27T17:43:46.943Z,13.3
2022-09-27T17:49:36.237Z,13.9
2022-09-27T17:55:24.250Z,4.1
2022-09-27T18:01:14.505Z,3
2022-09-27T18:07:05.895Z,3.9
2022-09-27T18:12:56.540Z,3.6
2022-09-27T18:18:48.886Z,2.8
2022-09-27T18:24:41.736Z,3.6
2022-09-27T18:30:31.622Z,3.9
2022-09-27T18:36:24.368Z,3.6
2022-09-27T18:42:14.643Z,3.5
2022-09-27T18:48:04.228Z,3.5
2022-09-27T18:53:54.224Z,4.2
2022-09-27T19:00:02.670Z,3.8
2022-09-27T19:06:05.704Z,4.4
2022-09-27T19:11:56.712Z,3.9
2022-09-27T19:17:46.480Z,5
2022-09-27T19:23:39.077Z,4.5
2022-09-27T19:29:29.332Z,4.3
2022-09-27T19:35:20.055Z,4.1
2022-09-27T19:41:10.325Z,5.6
2022-09-27T19:47:01.841Z,4.6
2022-09-27T19:52:53.006Z,5.1
2022-09-27T19:58:42.503Z,4.3
2022-09-27T20:04:34.915Z,4.3
2022-09-27T20:10:25.063Z,4.3
2022-09-27T20:16:14.771Z,3.6
2022-09-27T20:22:07.688Z,5.2
2022-09-27T20:27:57.841Z,2.3
2022-09-27T20:33:47.871Z,2.2
2022-09-27T20:39:39.518Z,2.1
2022-09-27T20:45:28.798Z,1.8
2022-09-27T20:51:18.682Z,1.7
2022-09-27T20:57:09.766Z,1.6
2022-09-27T21:03:06.352Z,2.1
2022-09-27T21:08:58.562Z,2.1
2022-09-27T21:14:47.581Z,2.2
2022-09-27T21:20:35.608Z,2.4
2022-09-27T21:26:24.023Z,2.5
2022-09-27T21:32:12.047Z,2.6
2022-09-27T21:38:00.806Z,2
2022-09-27T21:43:50.139Z,2.1
2022-09-27T21:49:39.004Z,1.7
2022-09-27T21:55:29.210Z,2
2022-09-27T22:01:19.734Z,1.6
2022-09-27T22:07:10.940Z,1.9
2022-09-27T22:13:01.203Z,2.2
2022-09-27T22:18:51.405Z,2.1
2022-09-27T22:24:42.235Z,2.4
2022-09-27T22:30:32.030Z,6.2
2022-09-27T22:36:22.047Z,4.3
2022-09-27T22:42:10.675Z,2.5
2022-09-27T22:48:00.354Z,2.4
2022-09-27T22:53:50.506Z,2.3
2022-09-27T22:59:40.895Z,2.4
2022-09-27T23:05:30.276Z,2.4
2022-09-27T23:11:19.220Z,1.9
2022-09-27T23:17:08.650Z,1.9
2022-09-27T23:22:57.796Z,1.8
2022-09-27T23:28:47.751Z,1.8
2022-09-27T23:34:39.003Z,1.8
2022-09-27T23:40:28.561Z,1.4
2022-09-27T23:53:43.774Z,1.1
2022-09-27T23:59:46.193Z,1.5
